createdAt,value
2022-11-01T00:02:00.963Z,10.30
2022-11-01T00:04:28.960Z,8.70
2022-11-01T00:06:56.999Z,9.40
2022-11-01T00:09:26.382Z,9.10
2022-11-01T00:11:54.368Z,10.40
2022-11-01T00:14:22.717Z,9.40
2022-11-01T00:16:50.692Z,8.70
2022-11-01T00:19:20.022Z,9.90
2022-11-01T00:21:48.192Z,8.10
2022-11-01T00:24:16.169Z,8.60
2022-11-01T00:26:44.301Z,9.70
2022-11-01T00:29:12.780Z,9.00
2022-11-01T00:31:41.071Z,9.50
2022-11-01T00:34:09.221Z,11.30
2022-11-01T00:36:37.208Z,12.20
2022-11-01T00:39:06.833Z,12.30
2022-11-01T00:41:35.159Z,8.90
2022-11-01T00:44:04.401Z,13.80
2022-11-01T00:46:33.529Z,12.70
2022-11-01T00:49:01.450Z,9.80
2022-11-01T00:51:29.611Z,10.60
2022-11-01T00:53:57.613Z,12.20
2022-11-01T00:56:25.679Z,11.20
2022-11-01T00:58:53.704Z,11.00
2022-11-01T01:01:21.844Z,10.90
2022-11-01T01:03:49.925Z,12.60
2022-11-01T01:06:17.856Z,10.70
2022-11-01T01:08:45.797Z,10.10
2022-11-01T01:11:13.688Z,11.80
2022-11-01T01:13:41.651Z,11.60
2022-11-01T01:16:11.902Z,11.10
2022-11-01T01:18:40.049Z,13.00
2022-11-01T01:21:08.663Z,11.00
2022-11-01T01:23:37.206Z,10.80
2022-11-01T01:26:10.267Z,9.40
2022-11-01T01:28:41.938Z,10.10
2022-11-01T01:31:14.021Z,11.40
2022-11-01T01:33:42.317Z,8.80
2022-11-01T01:36:10.572Z,9.70
2022-11-01T01:38:38.524Z,10.80
2022-11-01T01:41:24.789Z,10.20
2022-11-01T01:43:52.966Z,10.00
2022-11-01T01:46:21.355Z,11.70
2022-11-01T01:48:55.022Z,12.30
2022-11-01T01:51:26.123Z,12.00
2022-11-01T01:53:56.247Z,8.80
2022-11-01T01:56:33.738Z,9.90
2022-11-01T01:59:10.391Z,10.10
2022-11-01T02:01:41.216Z,7.50
2022-11-01T02:04:18.470Z,9.30
2022-11-01T02:06:48.188Z,8.00
2022-11-01T02:09:16.489Z,6.90
2022-11-01T02:11:44.706Z,7.50
2022-11-01T02:14:13.187Z,6.50
2022-11-01T02:16:52.677Z,8.00
2022-11-01T02:19:20.581Z,7.60
2022-11-01T02:22:01.013Z,8.20
2022-11-01T02:24:44.985Z,8.00
2022-11-01T02:27:27.136Z,8.20
2022-11-01T02:30:04.146Z,9.30
2022-11-01T02:32:37.663Z,9.30
2022-11-01T02:35:11.582Z,6.70
2022-11-01T02:38:24.463Z,8.90
2022-11-01T02:41:18.700Z,8.40
2022-11-01T02:44:16.636Z,7.80
2022-11-01T02:47:01.542Z,7.70
2022-11-01T02:49:49.152Z,7.80
2022-11-01T02:52:25.068Z,9.10
2022-11-01T02:54:57.553Z,8.30
2022-11-01T02:57:38.629Z,8.20
2022-11-01T03:00:39.787Z,6.40
2022-11-01T03:03:23.058Z,7.00
2022-11-01T03:06:00.160Z,7.60
2022-11-01T03:08:30.298Z,7.90
2022-11-01T03:11:08.010Z,8.80
2022-11-01T03:13:46.615Z,6.80
2022-11-01T03:16:49.994Z,7.10
2022-11-01T03:19:32.576Z,6.60
2022-11-01T03:22:08.050Z,7.10
2022-11-01T03:25:00.792Z,7.30
2022-11-01T03:27:41.800Z,7.40
2022-11-01T03:30:14.248Z,5.80
2022-11-01T03:32:47.177Z,5.10
2022-11-01T03:35:22.389Z,5.80
2022-11-01T03:37:54.834Z,6.10
2022-11-01T03:40:26.264Z,5.90
2022-11-01T03:42:59.779Z,7.10
2022-11-01T03:45:30.662Z,6.70
2022-11-01T03:48:01.083Z,5.00
2022-11-01T03:50:29.656Z,5.80
2022-11-01T03:52:58.922Z,5.30
2022-11-01T03:55:26.954Z,6.00
2022-11-01T03:58:00.010Z,5.80
2022-11-01T04:00:47.960Z,8.40
2022-11-01T04:03:16.093Z,5.20
2022-11-01T04:05:44.122Z,6.20
2022-11-01T04:08:12.404Z,4.90
2022-11-01T04:10:40.615Z,5.90
2022-11-01T04:13:08.825Z,5.50
2022-11-01T04:15:55.232Z,5.10
2022-11-01T04:18:43.146Z,5.80
2022-11-01T04:21:21.545Z,5.50
2022-11-01T04:23:49.609Z,4.50
2022-11-01T04:26:20.578Z,5.30
2022-11-01T04:28:58.149Z,5.10
2022-11-01T04:31:35.285Z,5.40
2022-11-01T04:34:05.277Z,7.30
2022-11-01T04:36:33.302Z,4.80
2022-11-01T04:39:01.260Z,6.30
2022-11-01T04:41:30.023Z,4.70
2022-11-01T04:43:59.387Z,5.10
2022-11-01T04:46:31.981Z,7.80
2022-11-01T04:49:00.115Z,5.80
2022-11-01T04:51:28.303Z,6.90
2022-11-01T04:53:56.454Z,5.90
2022-11-01T04:56:24.523Z,7.10
2022-11-01T04:58:52.379Z,7.30
2022-11-01T05:01:20.343Z,6.00
2022-11-01T05:03:48.902Z,7.00
2022-11-01T05:06:17.094Z,6.90
2022-11-01T05:08:44.965Z,7.10
2022-11-01T05:11:12.793Z,8.20
2022-11-01T05:13:40.656Z,7.70
2022-11-01T05:16:23.693Z,8.20
2022-11-01T05:18:51.605Z,7.20
2022-11-01T05:21:19.449Z,7.30
2022-11-01T05:23:49.189Z,7.80
2022-11-01T05:26:17.510Z,8.00
2022-11-01T05:28:45.451Z,5.80
2022-11-01T05:31:14.180Z,7.20
2022-11-01T05:33:41.942Z,6.50
2022-11-01T05:36:09.946Z,7.20
2022-11-01T05:38:37.892Z,5.40
2022-11-01T05:41:06.004Z,5.50
2022-11-01T05:43:33.850Z,8.40
2022-11-01T05:46:06.204Z,6.90
2022-11-01T05:48:34.899Z,6.00
2022-11-01T05:51:02.842Z,7.40
2022-11-01T05:53:30.800Z,6.40
2022-11-01T05:55:59.897Z,7.10
2022-11-01T05:58:30.692Z,5.70
2022-11-01T06:01:00.447Z,6.70
2022-11-01T06:03:28.409Z,5.50
2022-11-01T06:05:56.348Z,5.90
2022-11-01T06:08:25.567Z,5.10
2022-11-01T06:10:54.098Z,5.90
2022-11-01T06:13:21.921Z,5.50
2022-11-01T06:15:50.131Z,6.10
2022-11-01T06:18:18.043Z,4.80
2022-11-01T06:20:45.879Z,6.00
2022-11-01T06:23:13.790Z,5.60
2022-11-01T06:25:41.626Z,4.50
2022-11-01T06:28:11.658Z,5.20
2022-11-01T06:30:39.504Z,5.80
2022-11-01T06:33:09.627Z,4.50
2022-11-01T06:35:40.441Z,5.60
2022-11-01T06:38:09.456Z,5.90
2022-11-01T06:40:37.807Z,5.80
2022-11-01T06:43:06.531Z,4.90
2022-11-01T06:45:34.828Z,4.50
2022-11-01T06:48:03.282Z,4.90
2022-11-01T06:50:31.995Z,4.20
2022-11-01T06:53:00.457Z,4.00
2022-11-01T06:55:29.509Z,5.80
2022-11-01T06:58:03.555Z,3.10
2022-11-01T07:00:32.585Z,4.10
2022-11-01T07:03:05.624Z,4.10
2022-11-01T07:05:37.164Z,4.10
2022-11-01T07:08:08.091Z,4.40
2022-11-01T07:10:38.295Z,4.50
2022-11-01T07:13:07.534Z,4.50
2022-11-01T07:15:35.695Z,5.50
2022-11-01T07:18:06.262Z,4.90
2022-11-01T07:20:42.146Z,5.20
2022-11-01T07:23:15.855Z,4.80
2022-11-01T07:25:44.484Z,5.10
2022-11-01T07:28:12.508Z,5.60
2022-11-01T07:30:40.410Z,4.80
2022-11-01T07:33:08.428Z,5.50
2022-11-01T07:35:36.657Z,4.30
2022-11-01T07:38:08.096Z,5.60
2022-11-01T07:40:40.916Z,6.50
2022-11-01T07:43:08.965Z,6.60
2022-11-01T07:45:37.497Z,5.60
2022-11-01T07:48:11.208Z,8.50
2022-11-01T07:50:40.659Z,6.70
2022-11-01T07:53:12.184Z,5.40
2022-11-01T07:55:41.049Z,7.00
2022-11-01T07:58:10.185Z,5.30
2022-11-01T08:00:39.323Z,7.70
2022-11-01T08:03:12.801Z,7.70
2022-11-01T08:05:42.597Z,7.40
2022-11-01T08:08:11.171Z,6.40
2022-11-01T08:10:39.718Z,6.70
2022-11-01T08:13:21.390Z,8.80
2022-11-01T08:15:50.942Z,7.50
2022-11-01T08:18:22.369Z,7.10
2022-11-01T08:20:51.279Z,8.00
2022-11-01T08:23:19.712Z,7.10
2022-11-01T08:25:47.705Z,7.20
2022-11-01T08:28:18.839Z,7.40
2022-11-01T08:30:49.353Z,8.30
2022-11-01T08:33:17.389Z,8.70
2022-11-01T08:35:50.100Z,7.10
2022-11-01T08:38:19.052Z,9.00
2022-11-01T08:40:48.035Z,8.80
2022-11-01T08:43:16.105Z,7.90
2022-11-01T08:45:44.300Z,9.50
2022-11-01T08:48:12.714Z,11.60
2022-11-01T08:50:41.039Z,11.20
2022-11-01T08:53:14.860Z,9.20
2022-11-01T08:55:42.818Z,11.00
2022-11-01T08:58:11.642Z,11.10
2022-11-01T09:00:39.537Z,10.40
2022-11-01T09:03:07.842Z,8.50
2022-11-01T09:05:36.292Z,9.10
2022-11-01T09:08:04.850Z,9.50
2022-11-01T09:10:33.043Z,11.30
2022-11-01T09:13:02.216Z,10.90
2022-11-01T09:15:30.548Z,8.70
2022-11-01T09:17:58.492Z,9.70
2022-11-01T09:20:28.280Z,9.50
2022-11-01T09:22:56.184Z,10.10
2022-11-01T09:25:24.883Z,11.40
2022-11-01T09:27:56.657Z,10.40
2022-11-01T09:30:25.432Z,9.80
2022-11-01T09:32:53.467Z,10.40
2022-11-01T09:35:21.367Z,10.70
2022-11-01T09:37:49.295Z,11.40
2022-11-01T09:40:17.384Z,10.10
2022-11-01T09:42:46.723Z,9.60
2022-11-01T09:45:21.134Z,8.40
2022-11-01T09:47:53.436Z,8.40
2022-11-01T09:50:31.444Z,8.50
2022-11-01T09:55:43.352Z,9.50
2022-11-01T09:58:34.143Z,9.80
2022-11-01T10:01:39.591Z,7.20
2022-11-01T10:04:10.804Z,10.20
2022-11-01T10:06:43.968Z,7.60
2022-11-01T10:09:30.519Z,8.70
2022-11-01T10:12:13.692Z,7.00
2022-11-01T10:14:44.542Z,8.80
2022-11-01T10:17:15.024Z,9.10
2022-11-01T10:19:48.157Z,8.60
2022-11-01T10:22:18.545Z,8.30
2022-11-01T10:24:56.568Z,7.10
2022-11-01T10:27:47.782Z,8.00
2022-11-01T10:30:17.993Z,9.00
2022-11-01T10:33:17.020Z,8.30
2022-11-01T10:38:59.144Z,8.20
2022-11-01T10:41:25.823Z,7.90
2022-11-01T10:44:01.163Z,9.70
2022-11-01T10:46:37.084Z,9.80
2022-11-01T10:49:14.860Z,8.20
2022-11-01T10:51:44.465Z,7.60
2022-11-01T10:54:26.075Z,9.00
2022-11-01T10:56:59.280Z,7.20
2022-11-01T10:59:42.698Z,7.60
2022-11-01T11:02:24.197Z,8.40
2022-11-01T11:04:52.387Z,9.50
2022-11-01T11:07:23.163Z,7.20
2022-11-01T11:09:52.056Z,8.20
2022-11-01T11:12:22.260Z,9.10
2022-11-01T11:14:54.534Z,7.80
2022-11-01T11:17:39.314Z,8.50
2022-11-01T11:20:10.807Z,7.90
2022-11-01T11:22:42.526Z,8.30
2022-11-01T11:25:19.889Z,7.70
2022-11-01T11:27:52.999Z,9.60
2022-11-01T11:30:32.963Z,9.50
2022-11-01T11:33:02.923Z,10.80
2022-11-01T11:35:33.626Z,8.40
2022-11-01T11:38:04.745Z,10.70
2022-11-01T11:40:39.338Z,10.30
2022-11-01T11:43:25.799Z,10.50
2022-11-01T11:46:04.011Z,8.80
2022-11-01T11:48:32.066Z,11.50
2022-11-01T11:51:06.150Z,10.20
2022-11-01T11:53:36.419Z,9.60
2022-11-01T11:56:11.671Z,11.40
2022-11-01T12:01:15.867Z,9.70
2022-11-01T12:04:04.838Z,8.70
2022-11-01T12:06:39.130Z,9.70
2022-11-01T12:09:58.951Z,9.30
2022-11-01T12:12:30.401Z,12.50
2022-11-01T12:15:00.438Z,11.30
2022-11-01T12:17:46.927Z,11.30
2022-11-01T12:20:18.586Z,12.50
2022-11-01T12:23:12.558Z,10.10
2022-11-01T12:25:44.231Z,12.90
2022-11-01T12:28:29.625Z,13.10
2022-11-01T12:31:06.232Z,11.40
2022-11-01T12:33:41.147Z,9.20
2022-11-01T12:36:11.205Z,12.20
2022-11-01T12:38:42.826Z,13.30
2022-11-01T12:41:22.642Z,13.10
2022-11-01T12:43:53.494Z,13.90
2022-11-01T12:46:49.006Z,13.70
2022-11-01T12:49:29.377Z,12.50
2022-11-01T12:52:20.997Z,12.60
2022-11-01T12:55:00.607Z,12.50
2022-11-01T12:57:28.974Z,14.00
2022-11-01T12:59:57.184Z,14.10
2022-11-01T13:02:34.124Z,15.10
2022-11-01T13:05:09.917Z,13.40
2022-11-01T13:08:01.610Z,14.60
2022-11-01T13:10:36.656Z,13.40
2022-11-01T13:13:14.329Z,14.60
2022-11-01T13:15:51.275Z,13.40
2022-11-01T13:18:28.155Z,14.40
2022-11-01T13:21:01.841Z,13.60
2022-11-01T13:23:44.024Z,13.90
2022-11-01T13:26:18.110Z,15.40
2022-11-01T13:28:55.159Z,14.10
2022-11-01T13:32:01.067Z,14.70
2022-11-01T13:34:40.142Z,16.20
2022-11-01T13:37:24.148Z,16.00
2022-11-01T13:40:07.132Z,14.80
2022-11-01T13:43:09.801Z,15.30
2022-11-01T13:46:01.019Z,13.60
2022-11-01T13:49:05.117Z,11.90
2022-11-01T13:51:48.345Z,14.60
2022-11-01T13:54:16.208Z,13.80
2022-11-01T13:57:09.405Z,13.50
2022-11-01T13:59:37.180Z,12.10
2022-11-01T14:02:23.660Z,12.20
2022-11-01T14:05:10.971Z,14.80
2022-11-01T14:07:39.485Z,14.30
2022-11-01T14:10:22.314Z,14.00
2022-11-01T14:13:08.466Z,15.80
2022-11-01T14:15:54.747Z,16.30
2022-11-01T14:18:23.092Z,14.20
2022-11-01T14:20:52.676Z,17.40
2022-11-01T14:23:30.026Z,18.90
2022-11-01T14:26:21.363Z,15.00
2022-11-01T14:28:51.459Z,14.80
2022-11-01T14:31:23.516Z,15.00
2022-11-01T14:33:56.076Z,15.10
2022-11-01T14:36:31.334Z,16.30
2022-11-01T14:39:17.765Z,16.40
2022-11-01T14:41:51.253Z,16.40
2022-11-01T14:44:32.854Z,14.50
2022-11-01T14:47:08.201Z,12.90
2022-11-01T14:49:42.420Z,14.30
2022-11-01T14:52:35.758Z,14.10
2022-11-01T14:55:20.871Z,14.30
2022-11-01T14:57:49.317Z,15.30
2022-11-01T15:00:32.028Z,14.30
2022-11-01T15:03:02.483Z,14.80
2022-11-01T15:05:31.167Z,17.20
2022-11-01T15:08:02.351Z,14.20
2022-11-01T15:10:41.504Z,13.90
2022-11-01T15:13:15.443Z,18.70
2022-11-01T15:15:49.967Z,11.90
2022-11-01T15:18:20.606Z,15.10
2022-11-01T15:20:52.054Z,15.50
2022-11-01T15:23:27.725Z,13.90
2022-11-01T15:25:57.792Z,14.40
2022-11-01T15:28:29.470Z,16.10
2022-11-01T15:31:03.190Z,15.80
2022-11-01T15:33:32.204Z,15.50
2022-11-01T15:36:03.132Z,13.20
2022-11-01T15:38:35.216Z,16.50
2022-11-01T15:41:26.926Z,13.10
2022-11-01T15:43:56.973Z,16.20
2022-11-01T15:46:29.279Z,15.50
2022-11-01T15:49:01.424Z,18.70
2022-11-01T15:51:30.635Z,17.10
2022-11-01T15:54:06.478Z,16.30
2022-11-01T15:56:44.923Z,18.60
2022-11-01T15:59:25.003Z,16.60
2022-11-01T16:01:53.532Z,17.20
2022-11-01T16:04:24.887Z,16.00
2022-11-01T16:07:02.969Z,18.30
2022-11-01T16:09:49.727Z,17.80
2022-11-01T16:12:20.814Z,17.90
2022-11-01T16:14:56.282Z,20.70
2022-11-01T16:17:31.954Z,20.00
2022-11-01T16:20:00.009Z,19.00
2022-11-01T16:22:36.030Z,21.00
2022-11-01T16:25:14.845Z,20.60
2022-11-01T16:28:01.355Z,16.90
2022-11-01T16:30:43.011Z,20.70
2022-11-01T16:33:35.558Z,17.20
2022-11-01T18:59:37.242Z,22.80
2022-11-01T19:02:11.327Z,19.50
2022-11-01T19:04:42.741Z,19.50
2022-11-01T19:07:23.027Z,19.30
2022-11-01T19:10:00.303Z,20.60
2022-11-01T19:12:39.436Z,20.50
2022-11-01T19:15:11.736Z,20.40
2022-11-01T19:17:47.941Z,22.60
2022-11-01T19:20:30.329Z,21.60
2022-11-01T19:23:01.399Z,21.80
2022-11-01T19:25:32.596Z,22.50
2022-11-01T19:28:30.936Z,18.90
2022-11-01T19:31:07.076Z,19.80
2022-11-01T19:33:38.806Z,20.40
2022-11-01T19:36:21.138Z,18.30
2022-11-01T19:38:50.460Z,19.60
2022-11-01T19:41:29.073Z,21.70
2022-11-01T19:44:02.289Z,23.10
2022-11-01T19:46:30.200Z,18.20
2022-11-01T19:48:58.072Z,20.80
2022-11-01T19:51:27.118Z,19.50
2022-11-01T19:53:57.563Z,20.00
2022-11-01T19:56:31.535Z,21.10
2022-11-01T19:59:03.672Z,20.60
2022-11-01T20:01:44.257Z,19.90
2022-11-01T20:04:27.979Z,18.20
2022-11-01T20:07:09.557Z,18.90
2022-11-01T20:09:39.017Z,19.60
2022-11-01T20:12:08.153Z,19.50
2022-11-01T20:14:36.562Z,17.00
2022-11-01T20:17:05.092Z,17.20
2022-11-01T20:19:33.497Z,19.20
2022-11-01T20:22:01.518Z,21.30
2022-11-01T20:24:30.923Z,19.20
2022-11-01T20:27:00.813Z,17.40
2022-11-01T20:29:28.870Z,19.70
2022-11-01T20:31:56.989Z,20.40
2022-11-01T20:34:27.477Z,18.60
2022-11-01T20:39:47.280Z,16.80
2022-11-01T20:42:15.645Z,15.70
2022-11-01T20:44:43.692Z,19.80
2022-11-01T20:47:11.663Z,15.60
2022-11-01T20:49:41.983Z,16.70
2022-11-01T20:52:33.921Z,14.90
2022-11-01T20:54:57.981Z,15.00
2022-11-01T20:57:28.349Z,16.90
2022-11-01T20:59:57.303Z,13.40
2022-11-01T21:02:26.167Z,15.00
2022-11-01T21:05:15.724Z,16.10
2022-11-01T21:07:48.101Z,15.30
2022-11-01T21:10:41.047Z,14.90
2022-11-01T21:13:21.844Z,17.20
2022-11-01T21:15:51.340Z,15.30
2022-11-01T21:22:12.196Z,15.00
2022-11-01T21:24:47.122Z,18.70
2022-11-01T21:30:14.314Z,17.40
2022-11-01T21:32:45.552Z,18.40
2022-11-01T21:35:20.832Z,18.00
2022-11-01T21:38:01.900Z,14.40
2022-11-01T21:40:32.611Z,13.80
